sensor_id;sensor_type;location;lat;lon;timestamp;pressure;altitude;pressure_sealevel;temperature;humidity
37852;BME280;23691;52.486;4.650;2023-05-25T00:00:56;102703.91;;;13.94;66.14
37852;BME280;23691;52.486;4.650;2023-05-25T00:03:21;102709.72;;;13.89;66.23
37852;BME280;23691;52.486;4.650;2023-05-25T00:05:46;102709.28;;;13.84;66.27
37852;BME280;23691;52.486;4.650;2023-05-25T00:08:12;102710.41;;;13.82;66.44
37852;BME280;23691;52.486;4.650;2023-05-25T00:10:38;102712.38;;;13.80;66.58
37852;BME280;23691;52.486;4.650;2023-05-25T00:13:03;102707.13;;;13.78;66.48
37852;BME280;23691;52.486;4.650;2023-05-25T00:15:29;102707.28;;;13.77;66.64
37852;BME280;23691;52.486;4.650;2023-05-25T00:17:54;102710.28;;;13.73;66.76
37852;BME280;23691;52.486;4.650;2023-05-25T00:20:20;102711.81;;;13.66;66.83
37852;BME280;23691;52.486;4.650;2023-05-25T00:22:45;102706.56;;;13.65;66.93
37852;BME280;23691;52.486;4.650;2023-05-25T00:25:11;102721.56;;;13.67;66.86
37852;BME280;23691;52.486;4.650;2023-05-25T00:27:37;102712.53;;;13.68;66.94
37852;BME280;23691;52.486;4.650;2023-05-25T00:30:02;102707.41;;;13.65;66.67
37852;BME280;23691;52.486;4.650;2023-05-25T00:32:27;102710.81;;;13.67;66.57
37852;BME280;23691;52.486;4.650;2023-05-25T00:34:53;102712.53;;;13.68;66.72
37852;BME280;23691;52.486;4.650;2023-05-25T00:37:22;102717.31;;;13.65;66.70
37852;BME280;23691;52.486;4.650;2023-05-25T00:39:47;102721.16;;;13.62;66.87
37852;BME280;23691;52.486;4.650;2023-05-25T00:42:12;102719.59;;;13.60;66.90
37852;BME280;23691;52.486;4.650;2023-05-25T00:44:38;102727.09;;;13.56;66.91
37852;BME280;23691;52.486;4.650;2023-05-25T00:47:03;102723.41;;;13.57;66.91
37852;BME280;23691;52.486;4.650;2023-05-25T00:49:34;102725.38;;;13.55;67.00
37852;BME280;23691;52.486;4.650;2023-05-25T00:52:00;102730.03;;;13.53;67.05
37852;BME280;23691;52.486;4.650;2023-05-25T00:54:25;102732.00;;;13.51;66.81
37852;BME280;23691;52.486;4.650;2023-05-25T00:56:55;102738.50;;;13.48;66.95
37852;BME280;23691;52.486;4.650;2023-05-25T00:59:43;102737.66;;;13.48;66.96
37852;BME280;23691;52.486;4.650;2023-05-25T01:02:11;102733.41;;;13.45;66.79
37852;BME280;23691;52.486;4.650;2023-05-25T01:04:43;102742.31;;;13.46;66.77
37852;BME280;23691;52.486;4.650;2023-05-25T01:07:17;102740.75;;;13.43;66.95
37852;BME280;23691;52.486;4.650;2023-05-25T01:09:46;102745.56;;;13.40;66.58
37852;BME280;23691;52.486;4.650;2023-05-25T01:12:14;102753.91;;;13.37;66.94
37852;BME280;23691;52.486;4.650;2023-05-25T01:14:40;102750.50;;;13.35;66.73
37852;BME280;23691;52.486;4.650;2023-05-25T01:17:07;102747.22;;;13.31;67.06
37852;BME280;23691;52.486;4.650;2023-05-25T01:19:32;102739.44;;;13.28;67.01
37852;BME280;23691;52.486;4.650;2023-05-25T01:24:39;102744.03;;;13.16;67.40
37852;BME280;23691;52.486;4.650;2023-05-25T01:27:19;102744.88;;;13.17;67.40
37852;BME280;23691;52.486;4.650;2023-05-25T01:29:47;102743.31;;;13.14;67.49
37852;BME280;23691;52.486;4.650;2023-05-25T01:32:13;102746.28;;;13.11;67.44
37852;BME280;23691;52.486;4.650;2023-05-25T01:34:44;102756.25;;;12.99;67.95
37852;BME280;23691;52.486;4.650;2023-05-25T01:37:11;102741.53;;;12.94;67.80
37852;BME280;23691;52.486;4.650;2023-05-25T01:39:42;102752.00;;;12.97;68.04
37852;BME280;23691;52.486;4.650;2023-05-25T01:42:07;102753.28;;;12.93;68.20
37852;BME280;23691;52.486;4.650;2023-05-25T01:44:33;102754.13;;;12.93;68.13
37852;BME280;23691;52.486;4.650;2023-05-25T01:47:04;102754.84;;;12.95;68.35
37852;BME280;23691;52.486;4.650;2023-05-25T01:49:42;102758.25;;;12.97;68.21
37852;BME280;23691;52.486;4.650;2023-05-25T01:52:27;102753.84;;;12.96;68.29
37852;BME280;23691;52.486;4.650;2023-05-25T01:54:57;102751.31;;;12.95;68.27
37852;BME280;23691;52.486;4.650;2023-05-25T01:57:25;102760.06;;;12.97;68.19
37852;BME280;23691;52.486;4.650;2023-05-25T01:59:54;102761.78;;;12.98;68.40
37852;BME280;23691;52.486;4.650;2023-05-25T02:02:27;102769.50;;;12.91;68.76
37852;BME280;23691;52.486;4.650;2023-05-25T02:04:53;102769.25;;;12.94;68.85
37852;BME280;23691;52.486;4.650;2023-05-25T02:07:22;102772.53;;;12.98;68.68
37852;BME280;23691;52.486;4.650;2023-05-25T02:09:47;102775.94;;;13.00;68.74
37852;BME280;23691;52.486;4.650;2023-05-25T02:12:12;102776.22;;;13.06;68.67
37852;BME280;23691;52.486;4.650;2023-05-25T02:14:38;102772.69;;;13.06;68.74
37852;BME280;23691;52.486;4.650;2023-05-25T02:17:03;102770.00;;;13.06;68.73
37852;BME280;23691;52.486;4.650;2023-05-25T02:19:29;102765.03;;;13.01;69.06
37852;BME280;23691;52.486;4.650;2023-05-25T02:21:54;102763.91;;;13.04;69.16
37852;BME280;23691;52.486;4.650;2023-05-25T02:24:21;102755.34;;;13.10;69.04
37852;BME280;23691;52.486;4.650;2023-05-25T02:26:48;102760.31;;;13.15;69.04
37852;BME280;23691;52.486;4.650;2023-05-25T02:29:15;102761.16;;;13.15;69.11
37852;BME280;23691;52.486;4.650;2023-05-25T02:31:40;102763.69;;;13.17;68.97
37852;BME280;23691;52.486;4.650;2023-05-25T02:34:06;102765.41;;;13.18;68.99
37852;BME280;23691;52.486;4.650;2023-05-25T02:36:32;102763.44;;;13.20;68.79
37852;BME280;23691;52.486;4.650;2023-05-25T02:39:00;102766.13;;;13.20;68.65
37852;BME280;23691;52.486;4.650;2023-05-25T02:41:26;102777.72;;;13.20;69.17
37852;BME280;23691;52.486;4.650;2023-05-25T02:43:52;102765.28;;;13.19;68.91
37852;BME280;23691;52.486;4.650;2023-05-25T02:46:18;102763.44;;;13.20;69.23
37852;BME280;23691;52.486;4.650;2023-05-25T02:48:44;102760.59;;;13.21;69.33
37852;BME280;23691;52.486;4.650;2023-05-25T02:51:12;102773.34;;;13.19;69.28
37852;BME280;23691;52.486;4.650;2023-05-25T02:53:37;102777.84;;;13.19;69.21
37852;BME280;23691;52.486;4.650;2023-05-25T02:56:03;102776.56;;;13.13;69.34
37852;BME280;23691;52.486;4.650;2023-05-25T02:58:34;102779.19;;;13.03;69.54
37852;BME280;23691;52.486;4.650;2023-05-25T03:01:00;102778.03;;;12.96;69.82
37852;BME280;23691;52.486;4.650;2023-05-25T03:03:28;102784.66;;;12.92;70.07
37852;BME280;23691;52.486;4.650;2023-05-25T03:05:54;102778.41;;;12.92;70.07
37852;BME280;23691;52.486;4.650;2023-05-25T03:08:24;102774.03;;;12.91;70.20
37852;BME280;23691;52.486;4.650;2023-05-25T03:10:49;102776.47;;;12.94;70.22
37852;BME280;23691;52.486;4.650;2023-05-25T03:13:15;102781.56;;;12.97;69.94
37852;BME280;23691;52.486;4.650;2023-05-25T03:15:40;102780.31;;;13.01;70.02
37852;BME280;23691;52.486;4.650;2023-05-25T03:18:06;102784.41;;;12.95;69.96
37852;BME280;23691;52.486;4.650;2023-05-25T03:20:31;102791.28;;;12.88;70.22
37852;BME280;23691;52.486;4.650;2023-05-25T03:22:57;102792.06;;;12.79;70.62
37852;BME280;23691;52.486;4.650;2023-05-25T03:25:23;102791.72;;;12.72;71.05
37852;BME280;23691;52.486;4.650;2023-05-25T03:27:52;102788.66;;;12.77;70.93
37852;BME280;23691;52.486;4.650;2023-05-25T03:30:21;102792.06;;;12.79;71.10
37852;BME280;23691;52.486;4.650;2023-05-25T03:32:46;102797.31;;;12.80;70.99
37852;BME280;23691;52.486;4.650;2023-05-25T03:35:11;102795.34;;;12.82;71.04
37852;BME280;23691;52.486;4.650;2023-05-25T03:37:37;102792.25;;;12.87;71.00
37852;BME280;23691;52.486;4.650;2023-05-25T03:40:02;102791.72;;;12.93;70.91
37852;BME280;23691;52.486;4.650;2023-05-25T03:42:29;102795.25;;;12.94;70.93
37852;BME280;23691;52.486;4.650;2023-05-25T03:44:54;102795.00;;;12.97;70.88
37852;BME280;23691;52.486;4.650;2023-05-25T03:47:20;102786.53;;;13.01;71.03
37852;BME280;23691;52.486;4.650;2023-05-25T03:49:45;102790.06;;;13.02;70.97
37852;BME280;23691;52.486;4.650;2023-05-25T03:52:10;102796.31;;;13.02;70.98
37852;BME280;23691;52.486;4.650;2023-05-25T03:54:38;102793.22;;;13.07;70.97
37852;BME280;23691;52.486;4.650;2023-05-25T03:57:04;102797.34;;;13.11;70.82
37852;BME280;23691;52.486;4.650;2023-05-25T03:59:30;102804.16;;;13.15;70.87
37852;BME280;23691;52.486;4.650;2023-05-25T04:01:55;102790.56;;;13.17;70.52
37852;BME280;23691;52.486;4.650;2023-05-25T04:04:21;102802.03;;;13.19;70.69
37852;BME280;23691;52.486;4.650;2023-05-25T04:06:46;102803.75;;;13.20;70.72
37852;BME280;23691;52.486;4.650;2023-05-25T04:09:13;102808.28;;;13.19;70.73
37852;BME280;23691;52.486;4.650;2023-05-25T04:11:44;102806.44;;;13.20;70.79
37852;BME280;23691;52.486;4.650;2023-05-25T04:14:09;102810.81;;;13.21;70.93
37852;BME280;23691;52.486;4.650;2023-05-25T04:16:35;102811.19;;;13.27;70.99
37852;BME280;23691;52.486;4.650;2023-05-25T04:19:00;102822.81;;;13.38;70.55
37852;BME280;23691;52.486;4.650;2023-05-25T04:21:26;102810.63;;;13.34;70.70
37852;BME280;23691;52.486;4.650;2023-05-25T04:23:51;102816.56;;;13.27;70.88
37852;BME280;23691;52.486;4.650;2023-05-25T04:26:17;102823.88;;;13.25;71.01
37852;BME280;23691;52.486;4.650;2023-05-25T04:28:42;102821.66;;;13.30;70.90
37852;BME280;23691;52.486;4.650;2023-05-25T04:31:08;102821.53;;;13.32;71.15
37852;BME280;23691;52.486;4.650;2023-05-25T04:33:34;102825.63;;;13.36;70.82
37852;BME280;23691;52.486;4.650;2023-05-25T04:36:06;102832.13;;;13.34;70.82
37852;BME280;23691;52.486;4.650;2023-05-25T04:38:33;102833.25;;;13.31;70.89
37852;BME280;23691;52.486;4.650;2023-05-25T04:40:59;102828.59;;;13.33;70.98
37852;BME280;23691;52.486;4.650;2023-05-25T04:43:26;102828.59;;;13.33;71.09
37852;BME280;23691;52.486;4.650;2023-05-25T04:45:54;102840.66;;;13.39;70.88
37852;BME280;23691;52.486;4.650;2023-05-25T04:48:20;102833.31;;;13.41;70.73
37852;BME280;23691;52.486;4.650;2023-05-25T04:50:45;102833.19;;;13.42;70.84
37852;BME280;23691;52.486;4.650;2023-05-25T04:53:11;102844.38;;;13.47;70.74
37852;BME280;23691;52.486;4.650;2023-05-25T04:55:36;102840.69;;;13.48;70.68
37852;BME280;23691;52.486;4.650;2023-05-25T04:58:02;102844.66;;;13.44;70.95
37852;BME280;23691;52.486;4.650;2023-05-25T05:00:30;102855.41;;;13.44;71.10
37852;BME280;23691;52.486;4.650;2023-05-25T05:02:56;102848.34;;;13.53;71.03
37852;BME280;23691;52.486;4.650;2023-05-25T05:05:23;102845.88;;;13.61;70.79
37852;BME280;23691;52.486;4.650;2023-05-25T05:07:48;102851.41;;;13.69;70.71
37852;BME280;23691;52.486;4.650;2023-05-25T05:10:14;102849.03;;;13.76;70.75
37852;BME280;23691;52.486;4.650;2023-05-25T05:12:39;102853.00;;;13.82;70.61
37852;BME280;23691;52.486;4.650;2023-05-25T05:15:05;102851.88;;;13.84;70.71
37852;BME280;23691;52.486;4.650;2023-05-25T05:17:30;102853.44;;;13.87;70.78
37852;BME280;23691;52.486;4.650;2023-05-25T05:19:56;102850.63;;;13.88;70.95
37852;BME280;23691;52.486;4.650;2023-05-25T05:22:21;102858.97;;;13.95;70.88
37852;BME280;23691;52.486;4.650;2023-05-25T05:24:47;102857.44;;;14.02;70.96
37852;BME280;23691;52.486;4.650;2023-05-25T05:27:14;102863.97;;;14.09;70.69
37852;BME280;23691;52.486;4.650;2023-05-25T05:29:39;102861.28;;;14.19;70.52
37852;BME280;23691;52.486;4.650;2023-05-25T05:32:05;102858.63;;;14.29;70.24
37852;BME280;23691;52.486;4.650;2023-05-25T05:34:31;102870.81;;;14.33;70.20
37852;BME280;23691;52.486;4.650;2023-05-25T05:36:57;102866.41;;;14.32;70.43
37852;BME280;23691;52.486;4.650;2023-05-25T05:39:24;102868.41;;;14.39;70.19
37852;BME280;23691;52.486;4.650;2023-05-25T05:41:50;102873.78;;;14.49;70.28
37852;BME280;23691;52.486;4.650;2023-05-25T05:44:15;102874.00;;;14.57;70.06
37852;BME280;23691;52.486;4.650;2023-05-25T05:46:41;102871.84;;;14.61;70.05
37852;BME280;23691;52.486;4.650;2023-05-25T05:49:06;102873.69;;;14.70;69.91
37852;BME280;23691;52.486;4.650;2023-05-25T05:51:32;102877.97;;;14.73;69.88
37852;BME280;23691;52.486;4.650;2023-05-25T05:53:57;102876.53;;;14.78;69.43
37852;BME280;23691;52.486;4.650;2023-05-25T05:56:22;102886.75;;;14.85;69.39
37852;BME280;23691;52.486;4.650;2023-05-25T05:58:48;102888.56;;;15.03;68.93
37852;BME280;23691;52.486;4.650;2023-05-25T06:01:15;102887.13;;;15.19;68.37
37852;BME280;23691;52.486;4.650;2023-05-25T06:03:42;102886.41;;;15.17;68.85
37852;BME280;23691;52.486;4.650;2023-05-25T06:06:07;102892.22;;;15.22;68.69
37852;BME280;23691;52.486;4.650;2023-05-25T06:08:33;102903.69;;;15.34;68.02
37852;BME280;23691;52.486;4.650;2023-05-25T06:10:58;102896.41;;;15.54;68.02
37852;BME280;23691;52.486;4.650;2023-05-25T06:13:23;102893.94;;;15.70;67.56
37852;BME280;23691;52.486;4.650;2023-05-25T06:15:49;102896.09;;;15.94;66.88
37852;BME280;23691;52.486;4.650;2023-05-25T06:18:14;102900.25;;;16.16;66.69
37852;BME280;23691;52.486;4.650;2023-05-25T06:20:40;102898.50;;;16.25;66.21
37852;BME280;23691;52.486;4.650;2023-05-25T06:23:05;102900.41;;;16.15;66.10
37852;BME280;23691;52.486;4.650;2023-05-25T06:25:31;102908.41;;;16.06;65.99
37852;BME280;23691;52.486;4.650;2023-05-25T06:27:56;102906.41;;;16.08;66.16
37852;BME280;23691;52.486;4.650;2023-05-25T06:30:22;102911.38;;;16.31;65.75
37852;BME280;23691;52.486;4.650;2023-05-25T06:32:47;102909.78;;;16.56;65.33
37852;BME280;23691;52.486;4.650;2023-05-25T06:35:13;102903.44;;;16.65;65.10
37852;BME280;23691;52.486;4.650;2023-05-25T06:37:47;102905.44;;;16.63;64.61
37852;BME280;23691;52.486;4.650;2023-05-25T06:40:14;102909.00;;;16.46;65.05
37852;BME280;23691;52.486;4.650;2023-05-25T06:42:40;102910.22;;;16.34;64.88
37852;BME280;23691;52.486;4.650;2023-05-25T06:45:06;102924.50;;;16.26;64.99
37852;BME280;23691;52.486;4.650;2023-05-25T06:47:31;102925.31;;;16.26;64.46
37852;BME280;23691;52.486;4.650;2023-05-25T06:49:57;102916.19;;;16.37;64.13
37852;BME280;23691;52.486;4.650;2023-05-25T06:52:22;102919.50;;;16.49;63.93
37852;BME280;23691;52.486;4.650;2023-05-25T06:54:47;102924.03;;;16.48;63.79
37852;BME280;23691;52.486;4.650;2023-05-25T06:57:13;102915.94;;;16.48;63.88
37852;BME280;23691;52.486;4.650;2023-05-25T06:59:38;102922.44;;;16.56;63.66
37852;BME280;23691;52.486;4.650;2023-05-25T07:02:04;102919.41;;;16.86;63.20
37852;BME280;23691;52.486;4.650;2023-05-25T07:04:29;102922.91;;;17.05;62.81
37852;BME280;23691;52.486;4.650;2023-05-25T07:06:55;102932.84;;;17.22;62.26
37852;BME280;23691;52.486;4.650;2023-05-25T07:09:20;102926.97;;;17.27;62.26
37852;BME280;23691;52.486;4.650;2023-05-25T07:11:46;102932.81;;;17.40;61.80
37852;BME280;23691;52.486;4.650;2023-05-25T07:14:11;102933.63;;;17.93;60.79
37852;BME280;23691;52.486;4.650;2023-05-25T07:16:37;102940.19;;;18.16;60.32
37852;BME280;23691;52.486;4.650;2023-05-25T07:19:02;102949.31;;;18.23;59.95
37852;BME280;23691;52.486;4.650;2023-05-25T07:21:30;102948.69;;;18.30;59.81
37852;BME280;23691;52.486;4.650;2023-05-25T07:23:57;102945.63;;;18.24;59.69
37852;BME280;23691;52.486;4.650;2023-05-25T07:26:22;102952.44;;;18.45;58.94
37852;BME280;23691;52.486;4.650;2023-05-25T07:28:49;102955.34;;;18.60;58.47
37852;BME280;23691;52.486;4.650;2023-05-25T07:31:15;102968.25;;;18.66;57.92
37852;BME280;23691;52.486;4.650;2023-05-25T07:33:41;102962.16;;;18.56;57.78
37852;BME280;23691;52.486;4.650;2023-05-25T07:36:07;102968.56;;;18.55;57.93
37852;BME280;23691;52.486;4.650;2023-05-25T07:38:33;102967.22;;;18.59;57.58
37852;BME280;23691;52.486;4.650;2023-05-25T07:40:59;102976.03;;;18.61;57.40
37852;BME280;23691;52.486;4.650;2023-05-25T07:43:24;102969.94;;;18.67;56.78
37852;BME280;23691;52.486;4.650;2023-05-25T07:45:50;102961.81;;;18.75;56.71
37852;BME280;23691;52.486;4.650;2023-05-25T07:48:15;102970.00;;;18.83;56.55
37852;BME280;23691;52.486;4.650;2023-05-25T07:50:41;102975.78;;;18.80;56.56
37852;BME280;23691;52.486;4.650;2023-05-25T07:53:06;102973.19;;;18.71;56.37
37852;BME280;23691;52.486;4.650;2023-05-25T07:55:31;102966.28;;;18.76;56.24
37852;BME280;23691;52.486;4.650;2023-05-25T07:57:57;102970.16;;;18.90;55.96
37852;BME280;23691;52.486;4.650;2023-05-25T08:00:22;102974.09;;;19.04;55.56
37852;BME280;23691;52.486;4.650;2023-05-25T08:02:48;102978.47;;;19.05;55.69
37852;BME280;23691;52.486;4.650;2023-05-25T08:05:13;102985.09;;;18.94;55.90
37852;BME280;23691;52.486;4.650;2023-05-25T08:07:38;102982.19;;;18.87;55.96
37852;BME280;23691;52.486;4.650;2023-05-25T08:10:04;102991.03;;;18.81;55.58
37852;BME280;23691;52.486;4.650;2023-05-25T08:12:31;102989.50;;;18.79;55.69
37852;BME280;23691;52.486;4.650;2023-05-25T08:14:57;102995.06;;;18.77;55.72
37852;BME280;23691;52.486;4.650;2023-05-25T08:17:22;102995.75;;;18.79;55.48
37852;BME280;23691;52.486;4.650;2023-05-25T08:19:48;103001.88;;;18.81;55.64
37852;BME280;23691;52.486;4.650;2023-05-25T08:22:13;103004.22;;;18.76;55.63
37852;BME280;23691;52.486;4.650;2023-05-25T08:24:38;103000.81;;;18.74;55.59
37852;BME280;23691;52.486;4.650;2023-05-25T08:27:04;103005.88;;;18.69;55.20
37852;BME280;23691;52.486;4.650;2023-05-25T08:29:29;103006.34;;;18.56;55.39
37852;BME280;23691;52.486;4.650;2023-05-25T08:31:55;103004.69;;;18.63;55.10
37852;BME280;23691;52.486;4.650;2023-05-25T08:34:21;103006.59;;;18.79;54.91
37852;BME280;23691;52.486;4.650;2023-05-25T08:36:46;103003.44;;;19.00;54.84
37852;BME280;23691;52.486;4.650;2023-05-25T08:39:12;103004.63;;;19.22;54.40
37852;BME280;23691;52.486;4.650;2023-05-25T08:41:44;102998.69;;;19.35;53.92
37852;BME280;23691;52.486;4.650;2023-05-25T08:44:10;103000.53;;;19.43;53.58
37852;BME280;23691;52.486;4.650;2023-05-25T08:46:36;103000.22;;;19.38;53.42
37852;BME280;23691;52.486;4.650;2023-05-25T08:49:11;103009.00;;;19.31;53.77
37852;BME280;23691;52.486;4.650;2023-05-25T08:51:57;103004.78;;;19.13;53.87
37852;BME280;23691;52.486;4.650;2023-05-25T08:54:33;103006.63;;;18.96;54.20
37852;BME280;23691;52.486;4.650;2023-05-25T08:59:46;103012.47;;;18.58;54.76
37852;BME280;23691;52.486;4.650;2023-05-25T09:02:22;103012.19;;;18.35;55.21
37852;BME280;23691;52.486;4.650;2023-05-25T09:04:51;103019.94;;;18.22;55.35
37852;BME280;23691;52.486;4.650;2023-05-25T09:07:16;103010.78;;;18.15;55.80
37852;BME280;23691;52.486;4.650;2023-05-25T09:09:42;103004.31;;;18.16;55.81
37852;BME280;23691;52.486;4.650;2023-05-25T09:12:09;103004.88;;;18.28;55.79
37852;BME280;23691;52.486;4.650;2023-05-25T09:14:35;103008.31;;;18.38;55.48
37852;BME280;23691;52.486;4.650;2023-05-25T09:17:02;103013.78;;;18.46;55.54
37852;BME280;23691;52.486;4.650;2023-05-25T09:19:27;103014.66;;;18.63;55.15
37852;BME280;23691;52.486;4.650;2023-05-25T09:21:52;103018.25;;;18.72;54.92
37852;BME280;23691;52.486;4.650;2023-05-25T09:24:18;103022.72;;;18.81;54.65
37852;BME280;23691;52.486;4.650;2023-05-25T09:26:46;103028.84;;;18.91;54.38
37852;BME280;23691;52.486;4.650;2023-05-25T09:29:13;103022.41;;;19.00;54.16
37852;BME280;23691;52.486;4.650;2023-05-25T09:31:39;103018.53;;;19.03;53.84
37852;BME280;23691;52.486;4.650;2023-05-25T09:34:14;103018.19;;;18.98;54.06
37852;BME280;23691;52.486;4.650;2023-05-25T09:36:42;103030.03;;;18.88;53.71
37852;BME280;23691;52.486;4.650;2023-05-25T09:39:09;103021.19;;;18.86;53.79
37852;BME280;23691;52.486;4.650;2023-05-25T09:41:35;103027.13;;;18.90;53.72
37852;BME280;23691;52.486;4.650;2023-05-25T09:44:01;103023.41;;;18.99;53.25
37852;BME280;23691;52.486;4.650;2023-05-25T09:46:26;103020.84;;;18.90;53.18
37852;BME280;23691;52.486;4.650;2023-05-25T09:48:53;103020.31;;;18.78;53.38
37852;BME280;23691;52.486;4.650;2023-05-25T09:51:19;103022.28;;;18.59;53.36
37852;BME280;23691;52.486;4.650;2023-05-25T09:53:46;103023.25;;;18.50;53.24
37852;BME280;23691;52.486;4.650;2023-05-25T09:56:12;103024.28;;;18.49;53.16
37852;BME280;23691;52.486;4.650;2023-05-25T09:58:37;103028.88;;;18.49;53.32
37852;BME280;23691;52.486;4.650;2023-05-25T10:01:02;103035.63;;;18.44;53.12
37852;BME280;23691;52.486;4.650;2023-05-25T10:03:29;103041.31;;;18.33;53.65
37852;BME280;23691;52.486;4.650;2023-05-25T10:05:55;103044.00;;;18.25;53.29
37852;BME280;23691;52.486;4.650;2023-05-25T10:08:21;103051.78;;;18.20;53.86
37852;BME280;23691;52.486;4.650;2023-05-25T10:10:49;103048.03;;;18.21;53.23
37852;BME280;23691;52.486;4.650;2023-05-25T10:13:19;103044.16;;;18.23;53.05
37852;BME280;23691;52.486;4.650;2023-05-25T10:15:47;103044.00;;;18.25;53.04
37852;BME280;23691;52.486;4.650;2023-05-25T10:18:14;103055.53;;;18.27;53.30
37852;BME280;23691;52.486;4.650;2023-05-25T10:20:41;103050.81;;;18.29;53.34
37852;BME280;23691;52.486;4.650;2023-05-25T10:23:13;103048.97;;;18.38;53.19
37852;BME280;23691;52.486;4.650;2023-05-25T10:25:44;103048.34;;;18.52;53.07
37852;BME280;23691;52.486;4.650;2023-05-25T10:28:40;103042.81;;;18.70;52.82
37852;BME280;23691;52.486;4.650;2023-05-25T10:31:08;103044.75;;;18.86;52.73
37852;BME280;23691;52.486;4.650;2023-05-25T10:33:34;103048.34;;;19.03;52.64
37852;BME280;23691;52.486;4.650;2023-05-25T10:36:00;103046.00;;;19.24;52.08
37852;BME280;23691;52.486;4.650;2023-05-25T10:38:29;103048.56;;;19.42;51.37
37852;BME280;23691;52.486;4.650;2023-05-25T10:40:57;103051.78;;;19.62;51.00
37852;BME280;23691;52.486;4.650;2023-05-25T10:43:23;103049.91;;;19.87;50.31
37852;BME280;23691;52.486;4.650;2023-05-25T10:45:50;103040.84;;;20.11;49.37
37852;BME280;23691;52.486;4.650;2023-05-25T10:48:16;103037.88;;;20.29;48.50
37852;BME280;23691;52.486;4.650;2023-05-25T10:50:41;103038.81;;;20.45;47.98
37852;BME280;23691;52.486;4.650;2023-05-25T10:53:13;103038.94;;;20.59;47.30
37852;BME280;23691;52.486;4.650;2023-05-25T10:58:20;103040.09;;;20.96;46.37
37852;BME280;23691;52.486;4.650;2023-05-25T11:01:06;103041.03;;;21.12;45.86
37852;BME280;23691;52.486;4.650;2023-05-25T11:06:13;103051.53;;;21.15;45.70
37852;BME280;23691;52.486;4.650;2023-05-25T11:08:55;103047.94;;;20.91;46.04
37852;BME280;23691;52.486;4.650;2023-05-25T11:11:21;103046.97;;;20.84;45.77
37852;BME280;23691;52.486;4.650;2023-05-25T11:14:27;103045.53;;;20.96;45.65
37852;BME280;23691;52.486;4.650;2023-05-25T11:19:53;103048.63;;;21.16;44.92
37852;BME280;23691;52.486;4.650;2023-05-25T11:24:56;103041.91;;;21.50;43.48
37852;BME280;23691;52.486;4.650;2023-05-25T11:27:22;103038.25;;;21.58;43.66
37852;BME280;23691;52.486;4.650;2023-05-25T11:29:49;103042.22;;;21.70;43.43
37852;BME280;23691;52.486;4.650;2023-05-25T11:32:15;103027.22;;;21.89;43.08
37852;BME280;23691;52.486;4.650;2023-05-25T11:34:41;103018.28;;;21.80;43.00
37852;BME280;23691;52.486;4.650;2023-05-25T11:37:16;103025.84;;;22.38;42.23
37852;BME280;23691;52.486;4.650;2023-05-25T11:39:49;103017.47;;;22.76;40.88
37852;BME280;23691;52.486;4.650;2023-05-25T11:42:16;103019.75;;;22.72;40.75
37852;BME280;23691;52.486;4.650;2023-05-25T11:44:41;103020.56;;;22.36;40.69
37852;BME280;23691;52.486;4.650;2023-05-25T11:47:11;103021.34;;;22.00;41.44
37852;BME280;23691;52.486;4.650;2023-05-25T11:49:44;103012.28;;;21.85;41.70
37852;BME280;23691;52.486;4.650;2023-05-25T11:52:12;103017.28;;;22.11;41.40
37852;BME280;23691;52.486;4.650;2023-05-25T11:54:38;103019.13;;;22.55;41.02
37852;BME280;23691;52.486;4.650;2023-05-25T11:57:13;103014.75;;;22.24;40.62
37852;BME280;23691;52.486;4.650;2023-05-25T11:59:39;103016.44;;;22.11;41.26
37852;BME280;23691;52.486;4.650;2023-05-25T12:02:05;103007.78;;;22.07;41.46
37852;BME280;23691;52.486;4.650;2023-05-25T12:04:33;103006.44;;;22.47;40.57
37852;BME280;23691;52.486;4.650;2023-05-25T12:07:06;103004.75;;;22.46;40.60
37852;BME280;23691;52.486;4.650;2023-05-25T12:09:32;103014.94;;;22.23;40.23
37852;BME280;23691;52.486;4.650;2023-05-25T12:11:58;103021.06;;;22.25;40.30
37852;BME280;23691;52.486;4.650;2023-05-25T12:14:24;103008.53;;;22.01;40.08
37852;BME280;23691;52.486;4.650;2023-05-25T12:16:50;103025.16;;;21.76;40.64
37852;BME280;23691;52.486;4.650;2023-05-25T12:19:16;103018.88;;;21.76;40.57
37852;BME280;23691;52.486;4.650;2023-05-25T12:21:42;103014.94;;;22.23;39.78
37852;BME280;23691;52.486;4.650;2023-05-25T12:24:09;103007.06;;;22.49;39.61
37852;BME280;23691;52.486;4.650;2023-05-25T12:26:46;103019.06;;;22.34;39.80
37852;BME280;23691;52.486;4.650;2023-05-25T12:29:12;103015.38;;;22.12;40.07
37852;BME280;23691;52.486;4.650;2023-05-25T12:31:37;103020.75;;;22.71;39.31
37852;BME280;23691;52.486;4.650;2023-05-25T12:36:51;103017.84;;;22.21;39.90
37852;BME280;23691;52.486;4.650;2023-05-25T12:41:57;103016.97;;;22.87;40.06
37852;BME280;23691;52.486;4.650;2023-05-25T12:44:31;103016.44;;;22.40;39.94
37852;BME280;23691;52.486;4.650;2023-05-25T12:47:13;103025.84;;;22.08;40.41
37852;BME280;23691;52.486;4.650;2023-05-25T12:49:43;103014.25;;;22.50;39.46
37852;BME280;23691;52.486;4.650;2023-05-25T12:52:10;103015.06;;;22.87;38.87
37852;BME280;23691;52.486;4.650;2023-05-25T12:57:02;103018.34;;;22.61;39.06
37852;BME280;23691;52.486;4.650;2023-05-25T12:59:29;103027.31;;;22.91;38.26
37852;BME280;23691;52.486;4.650;2023-05-25T13:01:55;103010.84;;;23.28;37.75
37852;BME280;23691;52.486;4.650;2023-05-25T13:04:20;103000.72;;;23.22;37.53
37852;BME280;23691;52.486;4.650;2023-05-25T13:06:47;103006.28;;;23.07;38.01
37852;BME280;23691;52.486;4.650;2023-05-25T13:09:13;103009.66;;;22.72;38.22
37852;BME280;23691;52.486;4.650;2023-05-25T13:11:38;103008.72;;;23.23;37.56
37852;BME280;23691;52.486;4.650;2023-05-25T13:14:03;103007.88;;;23.23;37.55